createdAt,value
2022-10-20T00:04:39.281Z,99806.59
2022-10-20T00:09:44.199Z,99797.56
2022-10-20T00:14:51.833Z,99801.22
2022-10-20T00:19:56.609Z,99788.41
2022-10-20T00:25:01.576Z,99787.66
2022-10-20T00:30:10.068Z,99789.59
2022-10-20T00:35:15.081Z,99781.13
2022-10-20T00:40:20.065Z,99772.94
2022-10-20T00:45:27.966Z,99773.41
2022-10-20T00:50:36.301Z,99765.66
2022-10-20T00:55:45.388Z,99759.72
2022-10-20T01:00:59.014Z,99757.91
2022-10-20T01:06:03.922Z,99750.56
2022-10-20T01:11:18.879Z,99740.56
2022-10-20T01:16:32.928Z,99736.69
2022-10-20T01:21:59.058Z,99731.47
2022-10-20T01:27:30.311Z,99727.38
2022-10-20T01:32:42.457Z,99717.22
2022-10-20T01:37:55.285Z,99713.78
2022-10-20T01:43:07.543Z,99706.59
2022-10-20T01:48:15.069Z,99705.19
2022-10-20T01:53:19.979Z,99689.69
2022-10-20T01:58:49.766Z,99680.69
2022-10-20T02:03:56.996Z,99680.22
2022-10-20T02:09:04.262Z,99663.44
2022-10-20T02:14:15.168Z,99653.44
2022-10-20T02:19:24.806Z,99648.63
2022-10-20T02:24:34.915Z,99632.59
2022-10-20T02:29:47.610Z,99631.09
2022-10-20T02:34:52.346Z,99623.25
2022-10-20T02:39:57.155Z,99623.03
2022-10-20T02:45:04.973Z,99606.25
2022-10-20T02:50:10.979Z,99596.84
2022-10-20T02:55:15.886Z,99596.84
2022-10-20T03:00:23.774Z,99593.25
2022-10-20T03:05:29.963Z,99593.38
2022-10-20T03:10:35.422Z,99579.19
2022-10-20T03:15:42.896Z,99591.31
2022-10-20T03:20:47.644Z,99587.78
2022-10-20T03:25:52.546Z,99583.47
2022-10-20T03:31:01.087Z,99581.13
2022-10-20T03:36:06.222Z,99579.59
2022-10-20T03:41:11.081Z,99575.00
2022-10-20T03:46:18.750Z,99570.59
2022-10-20T03:51:23.839Z,99577.31
2022-10-20T03:56:31.196Z,99572.38
2022-10-20T04:01:39.758Z,99563.91
2022-10-20T04:06:44.826Z,99570.09
2022-10-20T04:11:49.893Z,99573.28
2022-10-20T04:16:57.353Z,99563.84
2022-10-20T04:22:02.180Z,99560.84
2022-10-20T04:27:07.476Z,99550.28
2022-10-20T04:32:15.115Z,99545.84
2022-10-20T04:37:19.966Z,99547.28
2022-10-20T04:42:24.905Z,99537.28
2022-10-20T04:47:35.151Z,99526.31
2022-10-20T04:52:40.231Z,99524.69
2022-10-20T04:57:45.586Z,99519.25
2022-10-20T05:02:53.198Z,99504.47
2022-10-20T05:07:58.806Z,99499.53
2022-10-20T05:13:03.936Z,99500.28
2022-10-20T05:18:11.795Z,99500.56
2022-10-20T05:23:16.686Z,99489.47
2022-10-20T05:28:21.729Z,99486.22
2022-10-20T05:33:29.188Z,99491.28
2022-10-20T05:38:35.970Z,99483.84
2022-10-20T05:43:41.754Z,99486.41
2022-10-20T05:48:50.704Z,99480.16
2022-10-20T05:53:58.082Z,99478.03
2022-10-20T05:59:04.138Z,99472.78
2022-10-20T06:04:11.778Z,99475.75
2022-10-20T06:09:16.903Z,99484.19
2022-10-20T06:14:22.596Z,99483.44
2022-10-20T06:19:30.531Z,99482.78
2022-10-20T06:24:35.372Z,99482.34
2022-10-20T06:29:40.445Z,99480.63
2022-10-20T06:34:47.978Z,99487.91
2022-10-20T06:39:55.915Z,99480.56
2022-10-20T06:45:02.886Z,99489.13
2022-10-20T06:50:16.593Z,99479.66
2022-10-20T06:55:22.760Z,99487.44
2022-10-20T07:00:27.843Z,99486.16
2022-10-20T07:05:38.046Z,99502.34
2022-10-20T07:10:43.276Z,99497.63
2022-10-20T07:15:49.277Z,99494.72
2022-10-20T07:20:59.798Z,99497.91
2022-10-20T07:26:05.365Z,99507.44
2022-10-20T07:31:13.159Z,99506.16
2022-10-20T07:36:22.618Z,99494.00
2022-10-20T07:41:28.644Z,99493.63
2022-10-20T07:46:33.942Z,99489.16
2022-10-20T07:51:41.410Z,99485.44
2022-10-20T07:56:46.997Z,99486.19
2022-10-20T08:01:54.716Z,99477.81
2022-10-20T08:07:04.855Z,99470.50
2022-10-20T08:12:09.708Z,99450.25
2022-10-20T08:17:14.890Z,99469.56
2022-10-20T08:22:22.455Z,99448.03
2022-10-20T08:27:28.144Z,99440.72
2022-10-20T08:32:33.159Z,99445.38
2022-10-20T08:37:41.037Z,99429.44
2022-10-20T08:42:48.267Z,99436.41
2022-10-20T08:47:56.309Z,99431.56
2022-10-20T08:53:04.634Z,99431.56
2022-10-20T08:58:15.058Z,99432.53
2022-10-20T09:03:24.223Z,99414.53
2022-10-20T09:08:34.422Z,99414.75
2022-10-20T09:13:41.750Z,99403.56
2022-10-20T09:18:46.961Z,99408.63
2022-10-20T09:23:57.752Z,99395.31
2022-10-20T09:29:15.808Z,99394.41
2022-10-20T09:34:26.485Z,99395.31
2022-10-20T09:39:40.754Z,99378.50
2022-10-20T09:44:54.490Z,99386.88
2022-10-20T09:50:02.171Z,99383.81
2022-10-20T09:55:23.229Z,99379.31
2022-10-20T10:00:38.782Z,99364.69
2022-10-20T10:05:47.299Z,99357.84
2022-10-20T10:11:05.576Z,99356.28
2022-10-20T10:16:14.335Z,99362.53
2022-10-20T10:21:20.865Z,99355.91
2022-10-20T10:26:48.398Z,99363.75
2022-10-20T10:31:59.702Z,99353.91
2022-10-20T10:37:04.878Z,99341.34
2022-10-20T10:42:30.592Z,99321.31
2022-10-20T10:47:58.281Z,99322.75
2022-10-20T10:53:16.789Z,99304.91
2022-10-20T10:58:36.049Z,99311.88
2022-10-20T11:03:59.814Z,99311.03
2022-10-20T11:09:17.795Z,99278.69
2022-10-20T11:14:40.138Z,99278.41
2022-10-20T11:20:11.401Z,99293.25
2022-10-20T11:25:28.769Z,99259.84
2022-10-20T11:30:36.878Z,99272.78
2022-10-20T11:35:47.150Z,99258.25
2022-10-20T11:41:02.325Z,99251.97
2022-10-20T11:46:15.468Z,99252.50
2022-10-20T11:51:39.036Z,99256.38
2022-10-20T11:57:09.158Z,99248.16
2022-10-20T12:02:37.743Z,99232.38
2022-10-20T12:08:24.816Z,99242.19
2022-10-20T12:13:39.644Z,99226.59
2022-10-20T12:19:18.165Z,99228.44
2022-10-20T12:24:39.146Z,99230.34
2022-10-20T12:30:31.147Z,99209.25
2022-10-20T12:36:03.978Z,99216.50
2022-10-20T12:41:12.690Z,99215.09
2022-10-20T12:46:23.372Z,99201.56
2022-10-20T12:51:41.016Z,99176.88
2022-10-20T12:56:48.832Z,99169.13
2022-10-20T13:02:23.790Z,99157.06
2022-10-20T13:08:07.310Z,99155.22
2022-10-20T13:13:42.363Z,99159.94
2022-10-20T13:18:50.766Z,99164.00
2022-10-20T13:24:02.215Z,99167.25
2022-10-20T13:29:17.144Z,99161.44
2022-10-20T13:34:28.182Z,99157.22
2022-10-20T13:39:41.778Z,99158.03
2022-10-20T13:45:01.474Z,99151.13
2022-10-20T13:50:13.271Z,99138.81
2022-10-20T13:55:23.047Z,99132.19
2022-10-20T14:00:33.249Z,99115.13
2022-10-20T14:05:42.928Z,99121.25
2022-10-20T14:10:52.920Z,99115.94
2022-10-20T14:16:02.676Z,99125.81
2022-10-20T14:21:09.211Z,99118.50
2022-10-20T14:26:18.603Z,99123.53
2022-10-20T14:31:27.894Z,99122.28
2022-10-20T14:36:33.867Z,99114.16
2022-10-20T14:41:39.503Z,99116.41
2022-10-20T14:46:49.922Z,99111.59
2022-10-20T14:51:59.776Z,99111.41
2022-10-20T14:57:26.249Z,99094.06
2022-10-20T15:02:38.601Z,99082.53
2022-10-20T15:07:44.125Z,99072.22
2022-10-20T15:12:53.209Z,99067.81
2022-10-20T15:18:18.615Z,99077.22
2022-10-20T15:23:25.503Z,99079.72
2022-10-20T15:28:36.577Z,99071.16
2022-10-20T15:33:44.722Z,99066.53
2022-10-20T15:38:50.109Z,99064.50
2022-10-20T15:43:55.226Z,99058.16
2022-10-20T15:49:02.737Z,99048.75
2022-10-20T15:54:07.998Z,99040.31
2022-10-20T15:59:12.840Z,99043.06
2022-10-20T16:04:26.447Z,99050.19
2022-10-20T16:09:31.518Z,99034.63
2022-10-20T16:14:38.157Z,99023.38
2022-10-20T16:19:45.946Z,99028.09
2022-10-20T16:24:50.912Z,99032.34
2022-10-20T16:29:55.773Z,99013.00
2022-10-20T16:35:03.176Z,99025.31
2022-10-20T16:40:09.043Z,99030.84
2022-10-20T16:45:14.192Z,99046.81
2022-10-20T16:50:21.726Z,99028.69
2022-10-20T16:55:26.548Z,99023.91
2022-10-20T17:00:31.362Z,99015.25
2022-10-20T17:05:38.744Z,99005.41
2022-10-20T17:10:43.888Z,99010.53
2022-10-20T17:15:48.808Z,99003.63
2022-10-20T17:20:59.028Z,98991.97
2022-10-20T17:26:05.037Z,99010.22
2022-10-20T17:31:11.534Z,98997.72
2022-10-20T17:36:19.013Z,98999.69
2022-10-20T17:41:23.891Z,98992.00
2022-10-20T17:46:28.655Z,99002.16
2022-10-20T17:51:36.986Z,99018.22
2022-10-20T17:56:42.179Z,99010.25
2022-10-20T18:01:47.066Z,99001.47
2022-10-20T18:06:54.697Z,99000.06
2022-10-20T18:12:00.014Z,98989.44
2022-10-20T18:17:05.014Z,98987.56
2022-10-20T18:22:12.428Z,98978.69
2022-10-20T18:27:17.178Z,98970.00
2022-10-20T18:32:21.938Z,98958.69
2022-10-20T18:37:29.412Z,98959.28
2022-10-20T18:42:34.474Z,98941.91
2022-10-20T18:47:41.613Z,98921.69
2022-10-20T18:52:52.171Z,98913.34
2022-10-20T18:57:57.450Z,98911.75
2022-10-20T19:03:04.332Z,98905.47
2022-10-20T19:08:11.733Z,98913.25
2022-10-20T19:13:17.003Z,98906.25
2022-10-20T19:18:22.042Z,98914.63
2022-10-20T19:23:30.272Z,98901.22
2022-10-20T19:28:38.203Z,98905.16
2022-10-20T19:33:43.471Z,98890.66
2022-10-20T19:38:51.384Z,98878.66
2022-10-20T19:43:56.337Z,98885.97
2022-10-20T19:49:02.140Z,98882.59
2022-10-20T19:54:10.677Z,98882.41
2022-10-20T19:59:15.615Z,98882.41
2022-10-20T20:04:20.663Z,98887.13
2022-10-20T20:09:30.034Z,98874.44
2022-10-20T20:14:37.098Z,98874.13
2022-10-20T20:19:45.074Z,98874.69
2022-10-20T20:24:52.520Z,98878.66
2022-10-20T20:29:59.132Z,98872.25
2022-10-20T20:40:12.966Z,98879.22
2022-10-20T20:45:18.526Z,98854.22
2022-10-20T20:50:23.395Z,98876.38
2022-10-20T20:55:30.893Z,98870.47
2022-10-20T21:00:35.709Z,98867.81
2022-10-20T21:05:40.582Z,98864.66
2022-10-20T21:10:47.993Z,98841.81
2022-10-20T21:15:52.757Z,98858.47
2022-10-20T21:20:57.925Z,98855.72
2022-10-20T21:26:05.323Z,98864.56
2022-10-20T21:31:12.109Z,98870.47
2022-10-20T21:36:18.767Z,98864.56
2022-10-20T21:41:28.444Z,98908.28
2022-10-20T21:46:35.943Z,98938.44
2022-10-20T21:51:42.428Z,98921.31
2022-10-20T21:56:50.484Z,98914.69
2022-10-20T22:01:56.906Z,98917.84
2022-10-20T22:07:02.039Z,98927.00
2022-10-20T22:12:09.608Z,98915.00
2022-10-20T22:17:14.777Z,98933.03
2022-10-20T22:22:19.663Z,98938.38
2022-10-20T22:27:41.591Z,98933.44
2022-10-20T22:32:46.854Z,98922.50
2022-10-20T22:37:51.644Z,98901.13
2022-10-20T22:42:59.009Z,98908.41
2022-10-20T22:48:03.919Z,98893.16
2022-10-20T22:53:08.912Z,98900.63
2022-10-20T22:58:16.336Z,98913.34
2022-10-20T23:03:21.016Z,98916.19
2022-10-20T23:08:27.385Z,98894.81
2022-10-20T23:13:38.630Z,98897.88
2022-10-20T23:18:43.716Z,98874.34
2022-10-20T23:23:49.254Z,98877.88
2022-10-20T23:28:56.668Z,98870.78
2022-10-20T23:34:01.663Z,98866.25
2022-10-20T23:39:06.718Z,98853.25
2022-10-20T23:44:14.084Z,98843.41
2022-10-20T23:49:18.878Z,98842.13
2022-10-20T23:54:23.909Z,98852.84
2022-10-20T23:59:31.255Z,98857.84
